createdAt,value
2018-07-11T00:00:10.016Z,101166.56
2018-07-11T00:02:38.248Z,101166.72
2018-07-11T00:05:06.525Z,101158.67
2018-07-11T00:07:34.749Z,101152.31
2018-07-11T00:10:03.115Z,101157.64
2018-07-11T00:12:31.325Z,101160.31
2018-07-11T00:14:59.559Z,101161.99
2018-07-11T00:17:27.733Z,101159.33
2018-07-11T00:19:56.029Z,101158.98
2018-07-11T00:22:24.293Z,101159.48
2018-07-11T00:24:52.556Z,101159.97
2018-07-11T00:27:20.800Z,101158.80
2018-07-11T00:29:49.040Z,101163.97
2018-07-11T00:32:17.512Z,101166.45
2018-07-11T00:34:45.800Z,101171.25
2018-07-11T00:37:14.120Z,101170.22
2018-07-11T00:39:42.329Z,101172.34
2018-07-11T00:42:10.581Z,101171.20
2018-07-11T00:44:38.850Z,101174.52
2018-07-11T00:47:07.114Z,101169.83
2018-07-11T00:49:35.341Z,101169.48
2018-07-11T00:52:03.578Z,101165.78
2018-07-11T00:54:31.821Z,101170.43
2018-07-11T00:57:00.502Z,101167.08
2018-07-11T00:59:30.239Z,101170.88
2018-07-11T01:02:03.951Z,101169.54
2018-07-11T01:04:32.587Z,101164.66
2018-07-11T01:07:04.013Z,101174.78
2018-07-11T01:09:33.024Z,101171.61
2018-07-11T01:12:01.273Z,101175.56
2018-07-11T01:14:29.513Z,101172.55
2018-07-11T01:16:57.768Z,101176.89
2018-07-11T01:19:26.025Z,101176.40
2018-07-11T01:22:02.109Z,101176.25
2018-07-11T01:24:31.208Z,101174.92
2018-07-11T01:27:00.352Z,101175.75
2018-07-11T01:29:28.579Z,101185.58
2018-07-11T01:31:56.852Z,101187.06
2018-07-11T01:34:25.073Z,101194.22
2018-07-11T01:36:53.297Z,101188.54
2018-07-11T01:39:21.540Z,101194.22
2018-07-11T01:41:49.789Z,101192.59
2018-07-11T01:44:18.021Z,101195.59
2018-07-11T01:46:48.264Z,101198.08
2018-07-11T01:49:16.508Z,101191.61
2018-07-11T01:51:56.708Z,101188.65
2018-07-11T01:54:25.260Z,101183.86
2018-07-11T01:56:53.548Z,101189.03
2018-07-11T01:59:22.251Z,101190.87
2018-07-11T02:01:50.729Z,101192.69
2018-07-11T02:04:18.993Z,101199.02
2018-07-11T02:06:47.237Z,101205.67
2018-07-11T02:09:15.512Z,101201.33
2018-07-11T02:11:43.764Z,101194.47
2018-07-11T02:14:12.091Z,101201.98
2018-07-11T02:16:40.338Z,101199.95
2018-07-11T02:19:08.592Z,101201.59
2018-07-11T02:21:36.861Z,101201.91
2018-07-11T02:24:05.556Z,101206.41
2018-07-11T02:26:33.800Z,101194.91
2018-07-11T02:29:02.119Z,101184.89
2018-07-11T02:31:30.413Z,101187.21
2018-07-11T02:33:58.896Z,101178.18
2018-07-11T02:36:27.161Z,101187.46
2018-07-11T02:38:55.398Z,101189.09
2018-07-11T02:41:23.645Z,101186.06
2018-07-11T02:43:51.842Z,101189.02
2018-07-11T02:46:24.262Z,101188.63
2018-07-11T02:48:52.493Z,101184.46
2018-07-11T02:51:20.737Z,101188.52
2018-07-11T02:53:48.969Z,101184.12
2018-07-11T02:56:17.201Z,101189.08
2018-07-11T02:58:45.441Z,101195.05
2018-07-11T03:01:13.678Z,101201.06
2018-07-11T03:03:41.917Z,101200.74
2018-07-11T03:06:10.136Z,101200.74
2018-07-11T03:08:38.953Z,101206.42
2018-07-11T03:11:07.200Z,101210.13
2018-07-11T03:13:35.610Z,101208.15
2018-07-11T03:16:03.850Z,101212.20
2018-07-11T03:18:32.176Z,101213.58
2018-07-11T03:21:00.454Z,101215.95
2018-07-11T03:23:28.728Z,101217.69
2018-07-11T03:25:57.015Z,101210.59
2018-07-11T03:28:25.252Z,101215.09
2018-07-11T03:30:53.461Z,101221.31
2018-07-11T03:33:21.688Z,101221.21
2018-07-11T03:35:49.939Z,101212.92
2018-07-11T03:38:18.253Z,101207.06
2018-07-11T03:40:46.505Z,101217.92
2018-07-11T03:43:14.732Z,101217.13
2018-07-11T03:45:42.960Z,101214.31
2018-07-11T03:48:11.216Z,101211.80
2018-07-11T03:50:39.445Z,101211.95
2018-07-11T03:53:07.693Z,101211.61
2018-07-11T03:55:35.930Z,101210.62
2018-07-11T03:58:04.138Z,101208.94
2018-07-11T04:00:32.349Z,101202.58
2018-07-11T04:03:00.629Z,101209.73
2018-07-11T04:05:28.837Z,101209.23
2018-07-11T04:07:57.146Z,101220.39
2018-07-11T04:10:25.333Z,101225.06
2018-07-11T04:13:01.534Z,101222.55
2018-07-11T04:15:29.802Z,101226.55
2018-07-11T04:17:58.036Z,101228.38
2018-07-11T04:20:26.331Z,101228.38
2018-07-11T04:22:54.584Z,101242.73
2018-07-11T04:25:22.933Z,101237.22
2018-07-11T04:27:51.188Z,101244.28
2018-07-11T04:30:19.479Z,101238.84
2018-07-11T04:32:47.781Z,101242.86
2018-07-11T04:35:16.004Z,101244.39
2018-07-11T04:37:44.256Z,101244.44
2018-07-11T04:40:12.541Z,101250.16
2018-07-11T04:42:40.807Z,101257.87
2018-07-11T04:45:09.085Z,101255.55
2018-07-11T04:47:37.357Z,101260.29
2018-07-11T04:50:05.604Z,101264.98
2018-07-11T04:52:33.868Z,101265.82
2018-07-11T04:55:02.101Z,101260.33
2018-07-11T04:57:30.354Z,101265.53
2018-07-11T04:59:58.784Z,101258.91
2018-07-11T05:02:27.073Z,101261.42
2018-07-11T05:04:55.274Z,101267.44
2018-07-11T05:07:23.488Z,101265.46
2018-07-11T05:09:51.716Z,101260.44
2018-07-11T05:12:20.888Z,101258.11
2018-07-11T05:14:49.096Z,101260.63
2018-07-11T05:17:17.423Z,101259.59
2018-07-11T05:19:45.616Z,101267.30
2018-07-11T05:22:13.841Z,101264.63
2018-07-11T05:24:42.120Z,101266.80
2018-07-11T05:27:10.404Z,101276.30
2018-07-11T05:29:38.604Z,101266.80
2018-07-11T05:32:06.855Z,101275.65
2018-07-11T05:34:35.132Z,101271.00
2018-07-11T05:37:03.389Z,101269.59
2018-07-11T05:39:31.648Z,101276.11
2018-07-11T05:41:59.864Z,101276.27
2018-07-11T05:44:28.105Z,101279.28
2018-07-11T05:47:01.644Z,101282.44
2018-07-11T05:49:30.317Z,101282.63
2018-07-11T05:51:58.596Z,101282.48
2018-07-11T05:54:26.817Z,101282.83
2018-07-11T05:56:55.013Z,101283.66
2018-07-11T05:59:23.447Z,101284.16
2018-07-11T06:01:51.708Z,101285.00
2018-07-11T06:04:20.248Z,101289.19
2018-07-11T06:06:48.728Z,101289.08
2018-07-11T06:09:17.105Z,101292.09
2018-07-11T06:11:45.322Z,101294.50
2018-07-11T06:14:13.572Z,101296.86
2018-07-11T06:16:41.848Z,101288.50
2018-07-11T06:19:10.164Z,101295.68
2018-07-11T06:21:38.501Z,101293.35
2018-07-11T06:24:07.153Z,101299.19
2018-07-11T06:26:35.412Z,101307.00
2018-07-11T06:29:03.641Z,101311.47
2018-07-11T06:31:31.860Z,101308.61
2018-07-11T06:34:00.085Z,101312.27
2018-07-11T06:36:28.309Z,101319.09
2018-07-11T06:38:56.584Z,101313.10
2018-07-11T06:41:24.801Z,101316.77
2018-07-11T06:43:53.285Z,101317.75
2018-07-11T06:46:21.513Z,101322.59
2018-07-11T06:48:49.748Z,101322.10
2018-07-11T06:51:17.989Z,101322.10
2018-07-11T06:53:46.209Z,101325.77
2018-07-11T06:56:14.417Z,101331.09
2018-07-11T06:58:42.661Z,101339.80
2018-07-11T07:01:10.914Z,101339.66
2018-07-11T07:03:39.453Z,101330.34
2018-07-11T07:06:07.636Z,101328.55
2018-07-11T07:08:35.841Z,101322.53
2018-07-11T07:11:04.072Z,101335.58
2018-07-11T07:13:32.306Z,101325.89
2018-07-11T07:16:00.526Z,101328.55
2018-07-11T07:18:28.765Z,101322.53
2018-07-11T07:20:57.005Z,101335.23
2018-07-11T07:23:25.227Z,101330.23
2018-07-11T07:25:53.449Z,101316.89
2018-07-11T07:28:21.688Z,101322.88
2018-07-11T07:30:49.944Z,101322.38
2018-07-11T07:33:18.192Z,101319.71
2018-07-11T07:35:46.504Z,101324.90
2018-07-11T07:38:14.705Z,101323.59
2018-07-11T07:40:42.908Z,101320.28
2018-07-11T07:43:11.149Z,101322.64
2018-07-11T07:45:40.600Z,101319.82
2018-07-11T07:48:08.873Z,101311.69
2018-07-11T07:50:37.152Z,101313.55
2018-07-11T07:53:05.463Z,101310.05
2018-07-11T07:55:33.745Z,101309.92
2018-07-11T07:58:02.048Z,101308.45
2018-07-11T08:00:30.325Z,101310.13
2018-07-11T08:02:59.032Z,101305.13
2018-07-11T08:05:27.289Z,101307.17
2018-07-11T08:07:55.537Z,101306.23
2018-07-11T08:10:23.892Z,101308.06
2018-07-11T08:12:52.110Z,101311.60
2018-07-11T08:15:20.334Z,101306.28
2018-07-11T08:17:48.558Z,101305.80
2018-07-11T08:20:16.798Z,101309.64
2018-07-11T08:23:23.046Z,101316.36
2018-07-11T08:26:03.605Z,101309.35
2018-07-11T08:30:46.961Z,101309.84
2018-07-11T08:35:33.611Z,101303.99
2018-07-11T08:38:24.306Z,101313.20
2018-07-11T08:41:16.279Z,101307.02
2018-07-11T08:47:01.899Z,101307.36
2018-07-11T08:49:40.306Z,101311.02
2018-07-11T08:52:49.884Z,101305.52
2018-07-11T08:56:41.157Z,101301.00
2018-07-11T08:59:20.881Z,101295.35
2018-07-11T09:03:02.277Z,101295.38
2018-07-11T09:07:48.101Z,101299.22
2018-07-11T09:12:31.780Z,101299.92
2018-07-11T09:15:11.324Z,101290.39
2018-07-11T09:18:20.245Z,101290.38
2018-07-11T09:21:17.773Z,101291.78
2018-07-11T09:23:57.376Z,101293.27
2018-07-11T09:26:25.592Z,101288.58
2018-07-11T09:28:53.878Z,101282.73
2018-07-11T09:31:22.116Z,101277.84
2018-07-11T09:33:50.569Z,101277.98
2018-07-11T09:36:18.841Z,101270.62
2018-07-11T09:38:47.162Z,101274.10
2018-07-11T09:41:15.340Z,101275.11
2018-07-11T09:43:43.837Z,101273.26
2018-07-11T09:46:12.077Z,101268.56
2018-07-11T09:48:40.305Z,101269.41
2018-07-11T09:51:08.985Z,101265.72
2018-07-11T09:53:37.632Z,101272.09
2018-07-11T09:56:06.329Z,101267.89
2018-07-11T09:58:34.589Z,101262.53
2018-07-11T10:01:08.244Z,101274.59
2018-07-11T10:03:36.508Z,101269.23
2018-07-11T10:06:04.785Z,101269.41
2018-07-11T10:08:33.020Z,101260.52
2018-07-11T10:11:01.235Z,101254.16
2018-07-11T10:13:29.436Z,101259.00
2018-07-11T10:15:57.681Z,101244.70
2018-07-11T10:18:25.912Z,101253.41
2018-07-11T10:20:54.129Z,101243.63
2018-07-11T10:23:22.344Z,101248.98
2018-07-11T10:25:50.628Z,101254.49
2018-07-11T10:28:20.080Z,101240.03
2018-07-11T10:30:48.688Z,101245.19
2018-07-11T10:33:16.931Z,101246.95
2018-07-11T10:35:45.145Z,101241.84
2018-07-11T10:38:13.538Z,101247.19
2018-07-11T10:40:41.865Z,101238.32
2018-07-11T10:43:10.429Z,101238.55
2018-07-11T10:45:38.674Z,101236.06
2018-07-11T10:48:06.906Z,101230.52
2018-07-11T10:50:35.159Z,101229.41
2018-07-11T10:53:03.344Z,101220.05
2018-07-11T10:55:31.581Z,101217.14
2018-07-11T10:57:59.887Z,101211.44
2018-07-11T11:00:36.664Z,101205.03
2018-07-11T11:02:58.790Z,101210.09
2018-07-11T11:05:27.012Z,101205.02
2018-07-11T11:07:55.279Z,101200.28
2018-07-11T11:10:23.489Z,101199.71
2018-07-11T11:12:51.716Z,101192.21
2018-07-11T11:15:19.932Z,101187.98
2018-07-11T11:17:48.145Z,101196.89
2018-07-11T11:20:16.376Z,101202.22
2018-07-11T11:22:44.677Z,101208.67
2018-07-11T11:25:12.925Z,101201.40
2018-07-11T11:27:41.153Z,101204.97
2018-07-11T11:30:09.360Z,101193.01
2018-07-11T11:32:37.598Z,101203.14
2018-07-11T11:35:06.117Z,101195.91
2018-07-11T11:37:34.397Z,101190.31
2018-07-11T11:40:02.642Z,101188.97
2018-07-11T11:42:31.253Z,101191.66
2018-07-11T11:44:59.101Z,101196.98
2018-07-11T11:47:28.496Z,101189.93
2018-07-11T11:49:57.498Z,101190.48
2018-07-11T11:52:26.006Z,101189.09
2018-07-11T11:54:54.693Z,101185.72
2018-07-11T11:57:23.357Z,101189.42
2018-07-11T11:59:51.906Z,101182.52
2018-07-11T12:02:20.216Z,101175.85
2018-07-11T12:04:48.456Z,101173.39
2018-07-11T12:07:16.744Z,101165.57
2018-07-11T12:09:45.017Z,101173.13
2018-07-11T12:12:13.275Z,101165.16
2018-07-11T12:14:41.476Z,101174.47
2018-07-11T12:17:09.789Z,101174.55
2018-07-11T12:19:38.037Z,101167.42
2018-07-11T12:22:06.436Z,101159.39
2018-07-11T12:24:34.710Z,101162.83
2018-07-11T12:27:03.025Z,101151.77
2018-07-11T12:29:31.240Z,101156.31
2018-07-11T12:31:59.461Z,101143.55
2018-07-11T12:34:27.685Z,101148.77
2018-07-11T12:36:56.711Z,101141.25
2018-07-11T12:39:24.984Z,101153.91
2018-07-11T12:41:53.245Z,101139.84
2018-07-11T12:44:21.500Z,101138.64
2018-07-11T12:46:49.760Z,101137.84
2018-07-11T12:49:18.026Z,101138.92
2018-07-11T12:51:46.257Z,101140.15
2018-07-11T12:54:14.514Z,101141.56
2018-07-11T12:56:42.745Z,101139.61
2018-07-11T12:59:11.014Z,101133.44
2018-07-11T13:01:39.326Z,101135.17
2018-07-11T13:04:07.669Z,101135.42
2018-07-11T13:06:37.528Z,101138.11
2018-07-11T13:09:06.714Z,101137.45
2018-07-11T13:11:35.014Z,101134.95
2018-07-11T13:14:03.301Z,101129.08
2018-07-11T13:16:31.621Z,101126.36
2018-07-11T13:18:59.808Z,101123.48
2018-07-11T13:21:28.048Z,101124.95
2018-07-11T13:23:56.272Z,101126.38
2018-07-11T13:26:24.484Z,101118.23
2018-07-11T13:28:52.741Z,101124.39
2018-07-11T13:31:21.013Z,101116.09
2018-07-11T13:33:49.336Z,101116.81
2018-07-11T13:36:17.565Z,101119.50
2018-07-11T13:38:45.785Z,101114.50
2018-07-11T13:41:14.100Z,101115.60
2018-07-11T13:43:42.360Z,101110.35
2018-07-11T13:46:10.591Z,101107.48
2018-07-11T13:48:38.798Z,101099.69
2018-07-11T13:51:07.053Z,101107.70
2018-07-11T13:53:35.336Z,101113.98
2018-07-11T13:56:03.620Z,101109.92
2018-07-11T13:58:31.883Z,101117.92
2018-07-11T14:01:00.247Z,101111.87
2018-07-11T14:03:28.504Z,101105.58
2018-07-11T14:05:56.745Z,101102.28
2018-07-11T14:08:25.924Z,101106.51
2018-07-11T14:10:54.345Z,101104.00
2018-07-11T14:13:22.588Z,101109.90
2018-07-11T14:15:50.791Z,101113.30
2018-07-11T14:18:18.997Z,101102.91
2018-07-11T14:20:47.204Z,101101.75
2018-07-11T14:23:20.593Z,101101.30
2018-07-11T14:25:49.532Z,101105.39
2018-07-11T14:28:24.400Z,101110.96
2018-07-11T14:30:52.641Z,101110.05
2018-07-11T14:33:21.454Z,101113.62
2018-07-11T14:35:49.681Z,101113.52
2018-07-11T14:38:17.941Z,101114.41
2018-07-11T14:40:46.191Z,101112.74
2018-07-11T14:43:14.421Z,101116.97
2018-07-11T14:45:42.706Z,101118.82
2018-07-11T14:48:15.169Z,101117.34
2018-07-11T14:50:43.824Z,101120.91
2018-07-11T14:53:12.193Z,101117.10
2018-07-11T14:55:40.445Z,101131.56
2018-07-11T14:58:08.689Z,101143.85
2018-07-11T15:00:36.937Z,101152.98
2018-07-11T15:03:05.196Z,101154.27
2018-07-11T15:05:33.444Z,101167.29
2018-07-11T15:08:01.739Z,101168.53
2018-07-11T15:10:30.010Z,101170.32
2018-07-11T15:12:58.280Z,101169.39
2018-07-11T15:15:26.521Z,101167.93
2018-07-11T15:17:54.748Z,101168.63
2018-07-11T15:20:23.021Z,101168.67
2018-07-11T15:22:51.333Z,101166.81
2018-07-11T15:25:19.549Z,101165.14
2018-07-11T15:27:47.824Z,101165.00
2018-07-11T15:30:16.085Z,101151.45
2018-07-11T15:32:44.404Z,101152.52
2018-07-11T15:35:12.608Z,101145.51
2018-07-11T15:37:40.857Z,101140.39
2018-07-11T15:40:09.121Z,101135.37
2018-07-11T15:42:37.381Z,101130.52
2018-07-11T15:45:05.968Z,101133.53
2018-07-11T15:47:35.737Z,101132.84
2018-07-11T15:50:04.189Z,101129.76
2018-07-11T15:52:34.458Z,101133.42
2018-07-11T15:55:04.485Z,101133.75
2018-07-11T15:57:35.201Z,101128.74
2018-07-11T16:00:08.773Z,101133.86
2018-07-11T16:02:46.934Z,101127.69
2018-07-11T16:05:18.415Z,101128.56
2018-07-11T16:07:48.770Z,101130.33
2018-07-11T16:10:18.676Z,101129.67
2018-07-11T16:12:46.973Z,101133.70
2018-07-11T16:15:15.228Z,101133.19
2018-07-11T16:17:43.453Z,101133.02
2018-07-11T16:20:11.673Z,101128.30
2018-07-11T16:22:39.920Z,101134.29
2018-07-11T16:25:08.145Z,101133.93
2018-07-11T16:27:36.461Z,101132.91
2018-07-11T16:30:04.802Z,101137.59
2018-07-11T16:32:33.047Z,101136.58
2018-07-11T16:35:01.273Z,101137.73
2018-07-11T16:37:29.521Z,101139.91
2018-07-11T16:39:57.772Z,101137.23
2018-07-11T16:42:26.005Z,101134.55
2018-07-11T16:44:54.257Z,101130.88
2018-07-11T16:47:22.580Z,101132.91
2018-07-11T16:49:50.974Z,101127.72
2018-07-11T16:52:19.253Z,101137.12
2018-07-11T16:54:47.529Z,101128.88
2018-07-11T16:57:21.435Z,101135.23
2018-07-11T16:59:56.688Z,101133.89
2018-07-11T17:02:26.061Z,101132.55
2018-07-11T17:04:55.900Z,101128.20
2018-07-11T17:07:25.609Z,101125.51
2018-07-11T17:09:56.369Z,101129.39
2018-07-11T17:12:25.492Z,101126.05
2018-07-11T17:14:57.761Z,101126.23
2018-07-11T17:17:30.348Z,101139.03
2018-07-11T17:20:04.077Z,101140.38
2018-07-11T17:22:35.173Z,101140.38
2018-07-11T17:25:06.433Z,101150.40
2018-07-11T17:27:34.741Z,101152.76
2018-07-11T17:30:03.980Z,101165.23
2018-07-11T17:32:32.581Z,101167.95
2018-07-11T17:35:00.852Z,101176.36
2018-07-11T17:37:32.494Z,101180.09
2018-07-11T17:40:08.905Z,101180.15
2018-07-11T17:42:37.164Z,101174.81
2018-07-11T17:45:14.615Z,101170.16
2018-07-11T17:49:59.305Z,101172.56
2018-07-11T17:52:28.612Z,101173.77
2018-07-11T17:55:14.269Z,101170.64
2018-07-11T17:57:52.021Z,101169.50
2018-07-11T18:00:56.969Z,101167.34
2018-07-11T18:03:41.950Z,101170.26
2018-07-11T18:06:25.600Z,101178.66
2018-07-11T18:09:05.569Z,101178.17
2018-07-11T18:12:44.338Z,101180.54
2018-07-11T18:15:26.890Z,101176.23
2018-07-11T18:18:16.946Z,101179.09
2018-07-11T18:20:51.369Z,101180.61
2018-07-11T18:23:44.481Z,101175.44
2018-07-11T18:26:18.913Z,101181.68
2018-07-11T18:28:59.365Z,101181.19
2018-07-11T18:31:46.105Z,101185.21
2018-07-11T18:34:27.323Z,101176.99
2018-07-11T18:37:07.785Z,101175.66
2018-07-11T18:39:44.403Z,101175.33
2018-07-11T18:42:49.081Z,101173.67
2018-07-11T18:48:31.245Z,101166.35
2018-07-11T18:51:06.421Z,101170.05
2018-07-11T18:54:13.989Z,101165.53
2018-07-11T18:56:57.960Z,101166.70
2018-07-11T18:59:35.406Z,101178.44
2018-07-11T19:02:14.435Z,101171.07
2018-07-11T19:05:22.264Z,101173.75
2018-07-11T19:07:55.314Z,101179.75
2018-07-11T19:11:36.261Z,101179.61
2018-07-11T19:14:08.905Z,101186.48
2018-07-11T19:16:56.845Z,101177.59
2018-07-11T19:19:33.024Z,101172.40
2018-07-11T19:22:03.273Z,101174.92
2018-07-11T19:24:49.017Z,101173.08
2018-07-11T19:27:31.109Z,101169.56
2018-07-11T19:30:22.165Z,101167.05
2018-07-11T19:33:00.944Z,101167.70
2018-07-11T19:37:42.908Z,101169.20
2018-07-11T19:40:15.094Z,101172.77
2018-07-11T19:45:29.403Z,101174.44
2018-07-11T19:50:16.948Z,101176.13
2018-07-11T19:52:53.585Z,101174.47
2018-07-11T19:56:37.157Z,101173.83
2018-07-11T19:59:05.420Z,101176.18
2018-07-11T20:01:33.668Z,101175.67
2018-07-11T20:04:01.965Z,101180.20
2018-07-11T20:06:30.308Z,101178.36
2018-07-11T20:08:58.641Z,101174.34
2018-07-11T20:11:26.910Z,101173.50
2018-07-11T20:13:55.491Z,101182.50
2018-07-11T20:16:24.386Z,101187.53
2018-07-11T20:18:52.767Z,101194.23
2018-07-11T20:21:21.685Z,101197.95
2018-07-11T20:23:49.988Z,101194.94
2018-07-11T20:26:19.096Z,101195.77
2018-07-11T20:28:47.373Z,101200.92
2018-07-11T20:31:16.058Z,101194.56
2018-07-11T20:33:44.364Z,101198.58
2018-07-11T20:36:12.845Z,101202.09
2018-07-11T20:38:41.745Z,101201.26
2018-07-11T20:41:10.136Z,101203.77
2018-07-11T20:43:38.404Z,101207.78
2018-07-11T20:46:07.337Z,101211.64
2018-07-11T20:48:37.256Z,101210.30
2018-07-11T20:51:05.743Z,101207.11
2018-07-11T20:53:33.978Z,101214.81
2018-07-11T20:56:02.180Z,101217.00
2018-07-11T20:58:41.605Z,101215.83
2018-07-11T21:01:21.140Z,101216.00
2018-07-11T21:07:09.759Z,101213.19
2018-07-11T21:09:49.777Z,101217.04
2018-07-11T21:14:32.029Z,101220.05
2018-07-11T21:17:14.780Z,101218.05
2018-07-11T21:19:43.038Z,101223.74
2018-07-11T21:22:11.237Z,101227.42
2018-07-11T21:24:39.497Z,101226.92
2018-07-11T21:27:07.763Z,101223.74
2018-07-11T21:29:36.040Z,101224.25
2018-07-11T21:32:04.292Z,101224.25
2018-07-11T21:34:32.531Z,101231.78
2018-07-11T21:37:00.845Z,101223.08
2018-07-11T21:39:29.193Z,101226.42
2018-07-11T21:41:57.444Z,101222.91
2018-07-11T21:44:25.692Z,101222.06
2018-07-11T21:46:53.913Z,101223.57
2018-07-11T21:49:23.031Z,101226.92
2018-07-11T21:51:51.657Z,101227.09
2018-07-11T21:54:19.905Z,101223.73
2018-07-11T21:56:48.121Z,101223.73
2018-07-11T21:59:16.367Z,101220.22
2018-07-11T22:01:44.601Z,101227.09
2018-07-11T22:04:12.856Z,101219.39
2018-07-11T22:06:41.077Z,101221.73
2018-07-11T22:09:09.333Z,101230.44
2018-07-11T22:11:37.565Z,101226.45
2018-07-11T22:14:05.868Z,101224.95
2018-07-11T22:16:34.141Z,101230.98
2018-07-11T22:19:02.394Z,101223.78
2018-07-11T22:21:29.509Z,101225.79
2018-07-11T22:23:56.629Z,101228.47
2018-07-11T22:26:23.740Z,101226.80
2018-07-11T22:28:50.864Z,101219.77
2018-07-11T22:31:17.968Z,101224.95
2018-07-11T22:33:45.113Z,101221.11
2018-07-11T22:36:12.224Z,101224.12
2018-07-11T22:38:39.368Z,101226.97
2018-07-11T22:41:06.488Z,101225.28
2018-07-11T22:43:33.614Z,101222.11
2018-07-11T22:46:00.755Z,101220.77
2018-07-11T22:48:27.857Z,101225.79
2018-07-11T22:50:54.976Z,101219.93
2018-07-11T22:53:22.133Z,101227.46
2018-07-11T22:55:49.274Z,101226.13
2018-07-11T22:58:16.400Z,101229.94
2018-07-11T23:00:43.521Z,101229.14
2018-07-11T23:03:10.638Z,101220.91
2018-07-11T23:05:37.772Z,101226.09
2018-07-11T23:08:04.909Z,101224.25
2018-07-11T23:10:32.025Z,101218.89
2018-07-11T23:12:59.277Z,101218.39
2018-07-11T23:15:26.384Z,101217.05
2018-07-11T23:17:53.500Z,101216.21
2018-07-11T23:20:20.683Z,101213.53
2018-07-11T23:22:47.749Z,101217.05
2018-07-11T23:25:14.874Z,101215.38
2018-07-11T23:27:41.988Z,101212.36
2018-07-11T23:30:09.117Z,101218.55
2018-07-11T23:32:36.236Z,101216.88
2018-07-11T23:35:03.361Z,101212.53
2018-07-11T23:37:30.472Z,101217.39
2018-07-11T23:39:57.599Z,101218.42
2018-07-11T23:42:24.717Z,101222.11
2018-07-11T23:44:51.838Z,101219.94
2018-07-11T23:47:18.945Z,101211.40
2018-07-11T23:49:46.070Z,101218.27
2018-07-11T23:52:13.181Z,101224.12
2018-07-11T23:54:40.309Z,101219.77
2018-07-11T23:57:07.421Z,101224.63
2018-07-11T23:59:34.573Z,101226.46
